sensor_id;sensor_type;location;lat;lon;timestamp;pressure;altitude;pressure_sealevel;temperature;humidity
60852;BME280;48553;50.766;2.900;2022-11-30T00:02:43;101617.06;;;6.01;91.05
60852;BME280;48553;50.766;2.900;2022-11-30T00:05:44;101614.63;;;6.00;90.99
60852;BME280;48553;50.766;2.900;2022-11-30T00:08:44;101604.78;;;6.04;90.87
60852;BME280;48553;50.766;2.900;2022-11-30T00:11:44;101604.84;;;5.99;90.93
60852;BME280;48553;50.766;2.900;2022-11-30T00:14:45;101606.47;;;6.00;91.11
60852;BME280;48553;50.766;2.900;2022-11-30T00:17:45;101596.41;;;6.00;91.22
60852;BME280;48553;50.766;2.900;2022-11-30T00:20:46;101608.09;;;6.01;90.95
60852;BME280;48553;50.766;2.900;2022-11-30T00:23:47;101603.75;;;6.00;91.12
60852;BME280;48553;50.766;2.900;2022-11-30T00:26:47;101600.19;;;5.99;90.99
60852;BME280;48553;50.766;2.900;2022-11-30T00:29:47;101592.88;;;6.00;90.82
60852;BME280;48553;50.766;2.900;2022-11-30T00:32:48;101599.13;;;6.00;91.14
60852;BME280;48553;50.766;2.900;2022-11-30T00:35:59;101598.00;;;6.01;90.85
60852;BME280;48553;50.766;2.900;2022-11-30T00:38:59;101600.19;;;5.99;90.95
60852;BME280;48553;50.766;2.900;2022-11-30T00:42:00;101599.69;;;5.97;91.28
60852;BME280;48553;50.766;2.900;2022-11-30T00:45:00;101590.69;;;5.97;91.25
60852;BME280;48553;50.766;2.900;2022-11-30T00:48:01;101591.00;;;5.95;91.04
60852;BME280;48553;50.766;2.900;2022-11-30T00:51:01;101589.63;;;5.98;91.05
60852;BME280;48553;50.766;2.900;2022-11-30T00:54:01;101601.88;;;5.95;91.20
60852;BME280;48553;50.766;2.900;2022-11-30T00:57:02;101610.59;;;5.97;90.91
60852;BME280;48553;50.766;2.900;2022-11-30T01:00:02;101613.31;;;5.97;91.18
60852;BME280;48553;50.766;2.900;2022-11-30T01:03:03;101612.78;;;5.95;91.24
60852;BME280;48553;50.766;2.900;2022-11-30T01:06:06;101605.13;;;5.97;91.33
60852;BME280;48553;50.766;2.900;2022-11-30T01:09:06;101607.03;;;5.97;91.10
60852;BME280;48553;50.766;2.900;2022-11-30T01:12:07;101607.03;;;5.97;91.19
60852;BME280;48553;50.766;2.900;2022-11-30T01:15:08;101610.84;;;5.96;91.43
60852;BME280;48553;50.766;2.900;2022-11-30T01:18:09;101614.09;;;5.98;91.36
60852;BME280;48553;50.766;2.900;2022-11-30T01:21:12;101611.38;;;5.98;91.49
60852;BME280;48553;50.766;2.900;2022-11-30T01:24:13;101604.31;;;5.97;91.41
60852;BME280;48553;50.766;2.900;2022-11-30T01:27:13;101623.06;;;5.98;91.17
60852;BME280;48553;50.766;2.900;2022-11-30T01:30:14;101615.19;;;5.97;91.53
60852;BME280;48553;50.766;2.900;2022-11-30T01:33:14;101615.50;;;5.95;91.53
60852;BME280;48553;50.766;2.900;2022-11-30T01:36:18;101624.19;;;5.97;91.48
60852;BME280;48553;50.766;2.900;2022-11-30T01:39:19;101618.44;;;5.99;91.27
60852;BME280;48553;50.766;2.900;2022-11-30T01:42:19;101615.50;;;5.95;91.24
60852;BME280;48553;50.766;2.900;2022-11-30T01:45:20;101608.13;;;5.96;91.33
60852;BME280;48553;50.766;2.900;2022-11-30T01:48:20;101612.78;;;5.95;91.25
60852;BME280;48553;50.766;2.900;2022-11-30T01:51:21;101604.03;;;5.93;91.16
60852;BME280;48553;50.766;2.900;2022-11-30T01:54:25;101613.00;;;5.94;91.55
60852;BME280;48553;50.766;2.900;2022-11-30T01:57:43;101613.28;;;5.92;91.50
60852;BME280;48553;50.766;2.900;2022-11-30T02:00:46;101616.28;;;5.96;91.12
60852;BME280;48553;50.766;2.900;2022-11-30T02:04:03;101609.47;;;5.93;91.50
60852;BME280;48553;50.766;2.900;2022-11-30T02:07:06;101616.31;;;5.91;91.36
60852;BME280;48553;50.766;2.900;2022-11-30T02:10:16;101615.19;;;5.92;91.38
60852;BME280;48553;50.766;2.900;2022-11-30T02:13:33;101616.00;;;5.92;91.59
60852;BME280;48553;50.766;2.900;2022-11-30T02:26:47;101611.66;;;5.91;91.73
60852;BME280;48553;50.766;2.900;2022-11-30T02:30:00;101608.69;;;5.93;91.36
60852;BME280;48553;50.766;2.900;2022-11-30T02:33:07;101615.19;;;5.92;91.61
60852;BME280;48553;50.766;2.900;2022-11-30T02:36:09;101621.75;;;5.91;91.43
60852;BME280;48553;50.766;2.900;2022-11-30T02:39:10;101619.03;;;5.91;91.55
60852;BME280;48553;50.766;2.900;2022-11-30T02:42:13;101620.09;;;5.90;91.46
60852;BME280;48553;50.766;2.900;2022-11-30T02:45:14;101624.75;;;5.89;91.75
60852;BME280;48553;50.766;2.900;2022-11-30T02:48:18;101622.56;;;5.91;91.50
60852;BME280;48553;50.766;2.900;2022-11-30T02:51:23;101624.22;;;5.87;91.76
60852;BME280;48553;50.766;2.900;2022-11-30T02:54:26;101610.03;;;5.90;91.63
60852;BME280;48553;50.766;2.900;2022-11-30T02:57:26;101616.31;;;5.85;91.84
60852;BME280;48553;50.766;2.900;2022-11-30T03:00:26;101610.59;;;5.87;91.74
60852;BME280;48553;50.766;2.900;2022-11-30T03:03:27;101605.69;;;5.89;91.81
60852;BME280;48553;50.766;2.900;2022-11-30T03:06:27;101608.41;;;5.89;91.78
60852;BME280;48553;50.766;2.900;2022-11-30T03:09:28;101610.59;;;5.87;91.60
60852;BME280;48553;50.766;2.900;2022-11-30T03:12:28;101602.16;;;5.89;91.67
60852;BME280;48553;50.766;2.900;2022-11-30T03:15:28;101604.59;;;5.90;91.66
60852;BME280;48553;50.766;2.900;2022-11-30T03:18:30;101605.69;;;5.89;91.55
60852;BME280;48553;50.766;2.900;2022-11-30T03:21:31;101601.06;;;5.90;91.77
60852;BME280;48553;50.766;2.900;2022-11-30T03:24:31;101616.06;;;5.87;91.84
60852;BME280;48553;50.766;2.900;2022-11-30T03:27:32;101610.88;;;5.85;91.88
60852;BME280;48553;50.766;2.900;2022-11-30T03:30:32;101614.94;;;5.88;91.96
60852;BME280;48553;50.766;2.900;2022-11-30T03:33:33;101621.75;;;5.91;91.64
60852;BME280;48553;50.766;2.900;2022-11-30T03:36:33;101616.06;;;5.87;91.80
60852;BME280;48553;50.766;2.900;2022-11-30T03:39:34;101622.03;;;5.89;91.95
60852;BME280;48553;50.766;2.900;2022-11-30T03:42:34;101613.59;;;5.91;91.77
60852;BME280;48553;50.766;2.900;2022-11-30T03:45:34;101620.09;;;5.90;91.80
60852;BME280;48553;50.766;2.900;2022-11-30T03:48:35;101623.63;;;5.90;91.58
60852;BME280;48553;50.766;2.900;2022-11-30T03:51:35;101625.53;;;5.90;91.66
60852;BME280;48553;50.766;2.900;2022-11-30T03:54:36;101632.09;;;5.89;91.89
60852;BME280;48553;50.766;2.900;2022-11-30T03:57:36;101614.94;;;5.88;91.80
60852;BME280;48553;50.766;2.900;2022-11-30T04:00:37;101620.38;;;5.88;92.15
60852;BME280;48553;50.766;2.900;2022-11-30T04:03:39;101631.00;;;5.90;91.72
60852;BME280;48553;50.766;2.900;2022-11-30T04:06:39;101627.47;;;5.89;91.99
60852;BME280;48553;50.766;2.900;2022-11-30T04:09:40;101625.53;;;5.90;92.12
60852;BME280;48553;50.766;2.900;2022-11-30T04:12:40;101622.03;;;5.89;92.08
60852;BME280;48553;50.766;2.900;2022-11-30T04:15:40;101627.19;;;5.91;91.84
60852;BME280;48553;50.766;2.900;2022-11-30T04:18:41;101625.31;;;5.86;92.02
60852;BME280;48553;50.766;2.900;2022-11-30T04:21:41;101626.94;;;5.87;92.09
60852;BME280;48553;50.766;2.900;2022-11-30T04:24:42;101621.22;;;5.89;92.17
60852;BME280;48553;50.766;2.900;2022-11-30T04:27:44;101627.19;;;5.91;92.13
60852;BME280;48553;50.766;2.900;2022-11-30T04:30:46;101640.50;;;5.92;91.83
60852;BME280;48553;50.766;2.900;2022-11-30T04:33:46;101640.50;;;5.92;91.91
60852;BME280;48553;50.766;2.900;2022-11-30T04:36:46;101634.50;;;5.90;92.24
60852;BME280;48553;50.766;2.900;2022-11-30T04:39:47;101630.44;;;5.93;92.27
60852;BME280;48553;50.766;2.900;2022-11-30T04:42:47;101636.97;;;5.92;92.39
60852;BME280;48553;50.766;2.900;2022-11-30T04:45:48;101639.41;;;5.93;92.04
60852;BME280;48553;50.766;2.900;2022-11-30T04:48:48;101648.38;;;5.94;92.04
60852;BME280;48553;50.766;2.900;2022-11-30T04:51:49;101651.09;;;5.94;91.96
60852;BME280;48553;50.766;2.900;2022-11-30T04:54:49;101650.03;;;5.95;92.04
60852;BME280;48553;50.766;2.900;2022-11-30T04:57:50;101652.47;;;5.96;91.94
60852;BME280;48553;50.766;2.900;2022-11-30T05:00:54;101641.59;;;5.96;92.23
60852;BME280;48553;50.766;2.900;2022-11-30T05:03:54;101656.53;;;5.94;92.26
60852;BME280;48553;50.766;2.900;2022-11-30T05:06:56;101657.38;;;5.94;92.41
60852;BME280;48553;50.766;2.900;2022-11-30T05:09:57;101653.81;;;5.94;92.40
60852;BME280;48553;50.766;2.900;2022-11-30T05:12:57;101657.38;;;5.94;92.25
60852;BME280;48553;50.766;2.900;2022-11-30T05:15:57;101660.91;;;5.95;92.14
60852;BME280;48553;50.766;2.900;2022-11-30T05:18:58;101658.72;;;5.97;92.27
60852;BME280;48553;50.766;2.900;2022-11-30T05:21:58;101657.09;;;5.96;92.19
60852;BME280;48553;50.766;2.900;2022-11-30T05:24:58;101664.16;;;5.97;92.33
60852;BME280;48553;50.766;2.900;2022-11-30T05:27:59;101665.28;;;5.96;92.38
60852;BME280;48553;50.766;2.900;2022-11-30T05:31:03;101661.44;;;5.97;92.32
60852;BME280;48553;50.766;2.900;2022-11-30T05:34:04;101670.44;;;5.97;92.40
60852;BME280;48553;50.766;2.900;2022-11-30T05:37:04;101669.59;;;5.97;92.18
60852;BME280;48553;50.766;2.900;2022-11-30T05:40:05;101666.59;;;5.98;92.37
60852;BME280;48553;50.766;2.900;2022-11-30T05:43:06;101675.03;;;5.97;92.50
60852;BME280;48553;50.766;2.900;2022-11-30T05:46:08;101669.59;;;5.97;92.47
60852;BME280;48553;50.766;2.900;2022-11-30T05:49:09;101668.53;;;5.98;92.28
60852;BME280;48553;50.766;2.900;2022-11-30T05:52:09;101674.25;;;5.96;92.66
60852;BME280;48553;50.766;2.900;2022-11-30T05:55:10;101668.53;;;5.98;92.37
60852;BME280;48553;50.766;2.900;2022-11-30T05:58:10;101671.25;;;5.98;92.43
60852;BME280;48553;50.766;2.900;2022-11-30T06:01:29;101668.78;;;5.96;92.51
60852;BME280;48553;50.766;2.900;2022-11-30T06:04:29;101675.03;;;5.97;92.58
60852;BME280;48553;50.766;2.900;2022-11-30T06:07:30;101669.06;;;6.00;92.55
60852;BME280;48553;50.766;2.900;2022-11-30T06:10:30;101669.31;;;5.98;92.47
60852;BME280;48553;50.766;2.900;2022-11-30T06:13:31;101673.16;;;5.97;92.54
60852;BME280;48553;50.766;2.900;2022-11-30T06:16:34;101670.44;;;5.97;92.42
60852;BME280;48553;50.766;2.900;2022-11-30T06:19:36;101673.97;;;5.98;92.48
60852;BME280;48553;50.766;2.900;2022-11-30T06:22:36;101680.22;;;5.98;92.60
60852;BME280;48553;50.766;2.900;2022-11-30T06:25:37;101679.09;;;5.99;92.54
60852;BME280;48553;50.766;2.900;2022-11-30T06:28:38;101668.22;;;5.99;92.43
60852;BME280;48553;50.766;2.900;2022-11-30T06:31:38;101669.31;;;5.98;92.62
60852;BME280;48553;50.766;2.900;2022-11-30T06:34:39;101690.00;;;5.99;92.43
60852;BME280;48553;50.766;2.900;2022-11-30T06:37:39;101685.38;;;6.00;92.68
60852;BME280;48553;50.766;2.900;2022-11-30T06:40:40;101680.22;;;5.98;92.54
60852;BME280;48553;50.766;2.900;2022-11-30T06:43:40;101693.00;;;5.98;92.73
60852;BME280;48553;50.766;2.900;2022-11-30T06:46:41;101681.31;;;5.97;92.44
60852;BME280;48553;50.766;2.900;2022-11-30T06:49:41;101694.94;;;5.97;92.58
60852;BME280;48553;50.766;2.900;2022-11-30T06:52:41;101678.31;;;5.99;92.57
60852;BME280;48553;50.766;2.900;2022-11-30T06:55:42;101694.63;;;5.99;92.53
60852;BME280;48553;50.766;2.900;2022-11-30T06:58:42;101707.16;;;6.00;92.48
60852;BME280;48553;50.766;2.900;2022-11-30T07:01:43;101692.47;;;5.96;92.54
60852;BME280;48553;50.766;2.900;2022-11-30T07:04:43;101695.19;;;5.96;92.70
60852;BME280;48553;50.766;2.900;2022-11-30T07:07:43;101707.69;;;5.97;92.63
60852;BME280;48553;50.766;2.900;2022-11-30T07:10:45;101700.88;;;5.99;92.54
60852;BME280;48553;50.766;2.900;2022-11-30T07:13:46;101709.34;;;5.98;92.78
60852;BME280;48553;50.766;2.900;2022-11-30T07:16:46;101705.50;;;5.99;92.81
60852;BME280;48553;50.766;2.900;2022-11-30T07:19:47;101712.06;;;5.98;92.60
60852;BME280;48553;50.766;2.900;2022-11-30T07:22:47;101720.22;;;5.98;92.73
60852;BME280;48553;50.766;2.900;2022-11-30T07:25:49;101710.69;;;6.00;92.76
60852;BME280;48553;50.766;2.900;2022-11-30T07:29:06;101718.31;;;5.98;92.46
60852;BME280;48553;50.766;2.900;2022-11-30T07:32:06;101720.22;;;5.98;92.65
60852;BME280;48553;50.766;2.900;2022-11-30T07:35:07;101719.91;;;5.99;92.79
60852;BME280;48553;50.766;2.900;2022-11-30T07:38:07;101722.63;;;5.99;92.54
60852;BME280;48553;50.766;2.900;2022-11-30T07:41:08;101729.72;;;6.00;92.41
60852;BME280;48553;50.766;2.900;2022-11-30T07:44:08;101732.72;;;5.99;92.60
60852;BME280;48553;50.766;2.900;2022-11-30T07:47:09;101736.25;;;5.99;92.75
60852;BME280;48553;50.766;2.900;2022-11-30T07:50:10;101732.72;;;5.99;92.57
60852;BME280;48553;50.766;2.900;2022-11-30T07:53:11;101728.91;;;6.00;92.84
60852;BME280;48553;50.766;2.900;2022-11-30T07:56:14;101738.16;;;5.99;92.83
60852;BME280;48553;50.766;2.900;2022-11-30T07:59:14;101737.63;;;6.02;92.31
60852;BME280;48553;50.766;2.900;2022-11-30T08:02:15;101734.91;;;6.02;92.86
60852;BME280;48553;50.766;2.900;2022-11-30T08:05:15;101737.88;;;6.00;92.59
60852;BME280;48553;50.766;2.900;2022-11-30T08:08:16;101740.34;;;5.97;92.88
60852;BME280;48553;50.766;2.900;2022-11-30T08:11:18;101753.41;;;6.00;92.73
60852;BME280;48553;50.766;2.900;2022-11-30T08:14:19;101771.88;;;6.03;92.40
60852;BME280;48553;50.766;2.900;2022-11-30T08:17:20;101753.94;;;6.02;92.48
60852;BME280;48553;50.766;2.900;2022-11-30T08:20:20;101766.19;;;5.99;92.64
60852;BME280;48553;50.766;2.900;2022-11-30T08:23:21;101763.47;;;5.99;92.94
60852;BME280;48553;50.766;2.900;2022-11-30T08:26:24;101767.00;;;6.00;92.68
60852;BME280;48553;50.766;2.900;2022-11-30T08:29:25;101764.84;;;6.02;92.94
60852;BME280;48553;50.766;2.900;2022-11-30T08:32:25;101767.56;;;6.02;92.94
60852;BME280;48553;50.766;2.900;2022-11-30T08:35:25;101776.22;;;6.04;92.61
60852;BME280;48553;50.766;2.900;2022-11-30T08:38:26;101773.50;;;6.04;92.84
60852;BME280;48553;50.766;2.900;2022-11-30T08:41:27;101772.69;;;6.03;92.85
60852;BME280;48553;50.766;2.900;2022-11-30T08:44:28;101782.50;;;6.04;93.04
60852;BME280;48553;50.766;2.900;2022-11-30T08:47:28;101775.41;;;6.03;93.05
60852;BME280;48553;50.766;2.900;2022-11-30T08:50:29;101786.84;;;6.05;93.06
60852;BME280;48553;50.766;2.900;2022-11-30T08:53:30;101781.13;;;6.07;92.93
60852;BME280;48553;50.766;2.900;2022-11-30T08:56:31;101783.56;;;6.03;93.29
60852;BME280;48553;50.766;2.900;2022-11-30T08:59:31;101783.03;;;6.06;93.17
60852;BME280;48553;50.766;2.900;2022-11-30T09:02:32;101786.84;;;6.05;93.38
60852;BME280;48553;50.766;2.900;2022-11-30T09:05:32;101789.28;;;6.07;93.32
60852;BME280;48553;50.766;2.900;2022-11-30T09:08:33;101792.00;;;6.07;93.42
60852;BME280;48553;50.766;2.900;2022-11-30T09:11:34;101783.53;;;6.09;93.15
60852;BME280;48553;50.766;2.900;2022-11-30T09:14:34;101787.09;;;6.09;93.33
60852;BME280;48553;50.766;2.900;2022-11-30T09:17:35;101792.53;;;6.09;93.42
60852;BME280;48553;50.766;2.900;2022-11-30T09:20:36;101797.16;;;6.14;93.00
60852;BME280;48553;50.766;2.900;2022-11-30T09:23:37;101800.16;;;6.12;93.31
60852;BME280;48553;50.766;2.900;2022-11-30T09:26:38;101797.69;;;6.16;93.26
60852;BME280;48553;50.766;2.900;2022-11-30T09:29:38;101810.19;;;6.17;93.05
60852;BME280;48553;50.766;2.900;2022-11-30T09:32:38;101805.28;;;6.19;93.09
60852;BME280;48553;50.766;2.900;2022-11-30T09:35:39;101803.38;;;6.19;93.25
60852;BME280;48553;50.766;2.900;2022-11-30T09:38:40;101827.88;;;6.19;93.16
60852;BME280;48553;50.766;2.900;2022-11-30T09:42:13;101811.53;;;6.19;93.18
60852;BME280;48553;50.766;2.900;2022-11-30T09:45:22;101805.56;;;6.22;93.09
60852;BME280;48553;50.766;2.900;2022-11-30T09:48:26;101810.69;;;6.24;93.00
60852;BME280;48553;50.766;2.900;2022-11-30T09:51:39;101815.88;;;6.25;93.25
60852;BME280;48553;50.766;2.900;2022-11-30T09:54:44;101816.13;;;6.24;93.54
60852;BME280;48553;50.766;2.900;2022-11-30T09:57:48;101819.41;;;6.26;93.66
60852;BME280;48553;50.766;2.900;2022-11-30T10:00:51;101808.78;;;6.30;93.11
60852;BME280;48553;50.766;2.900;2022-11-30T10:03:52;101807.66;;;6.31;93.13
60852;BME280;48553;50.766;2.900;2022-11-30T10:10:40;101797.28;;;6.38;93.17
60852;BME280;48553;50.766;2.900;2022-11-30T10:17:30;101821.47;;;6.44;93.09
60852;BME280;48553;50.766;2.900;2022-11-30T10:26:53;101829.59;;;6.55;92.86
60852;BME280;48553;50.766;2.900;2022-11-30T10:29:54;101813.53;;;6.53;92.93
60852;BME280;48553;50.766;2.900;2022-11-30T10:32:59;101825.22;;;6.54;93.02
60852;BME280;48553;50.766;2.900;2022-11-30T10:36:09;101815.66;;;6.61;93.00
60852;BME280;48553;50.766;2.900;2022-11-30T10:39:37;101815.09;;;6.64;92.53
60852;BME280;48553;50.766;2.900;2022-11-30T10:42:58;101798.44;;;6.71;92.67
60852;BME280;48553;50.766;2.900;2022-11-30T10:46:03;101796.47;;;6.77;92.21
60852;BME280;48553;50.766;2.900;2022-11-30T10:49:09;101795.91;;;6.80;92.26
60852;BME280;48553;50.766;2.900;2022-11-30T10:52:17;101806.00;;;6.79;92.40
60852;BME280;48553;50.766;2.900;2022-11-30T10:55:22;101805.16;;;6.79;92.23
60852;BME280;48553;50.766;2.900;2022-11-30T10:59:03;101807.34;;;6.82;92.30
60852;BME280;48553;50.766;2.900;2022-11-30T11:05:35;101794.81;;;6.81;92.28
60852;BME280;48553;50.766;2.900;2022-11-30T11:08:35;101795.34;;;6.83;92.22
60852;BME280;48553;50.766;2.900;2022-11-30T11:11:37;101798.88;;;6.83;92.34
60852;BME280;48553;50.766;2.900;2022-11-30T11:14:38;101801.59;;;6.83;92.52
60852;BME280;48553;50.766;2.900;2022-11-30T11:17:39;101811.41;;;6.84;92.42
60852;BME280;48553;50.766;2.900;2022-11-30T11:20:39;101799.72;;;6.84;92.81
60852;BME280;48553;50.766;2.900;2022-11-30T11:23:43;101798.31;;;6.86;92.48
60852;BME280;48553;50.766;2.900;2022-11-30T11:26:49;101799.13;;;6.87;92.67
60852;BME280;48553;50.766;2.900;2022-11-30T11:33:27;101800.75;;;6.88;92.68
60852;BME280;48553;50.766;2.900;2022-11-30T11:36:31;101805.09;;;6.89;93.01
60852;BME280;48553;50.766;2.900;2022-11-30T11:39:31;101790.38;;;6.90;92.60
60852;BME280;48553;50.766;2.900;2022-11-30T11:42:52;101792.28;;;6.89;93.17
60852;BME280;48553;50.766;2.900;2022-11-30T11:45:58;101784.91;;;6.90;93.17
60852;BME280;48553;50.766;2.900;2022-11-30T11:49:05;101783.03;;;6.90;92.74
60852;BME280;48553;50.766;2.900;2022-11-30T11:55:18;101788.97;;;6.93;92.81
60852;BME280;48553;50.766;2.900;2022-11-30T12:05:50;101783.25;;;6.94;93.13
60852;BME280;48553;50.766;2.900;2022-11-30T12:08:59;101778.63;;;6.95;93.14
60852;BME280;48553;50.766;2.900;2022-11-30T12:12:02;101782.19;;;6.95;93.09
60852;BME280;48553;50.766;2.900;2022-11-30T12:15:04;101778.34;;;6.96;93.07
60852;BME280;48553;50.766;2.900;2022-11-30T12:18:19;101785.44;;;6.97;93.06
60852;BME280;48553;50.766;2.900;2022-11-30T12:24:52;101775.56;;;7.01;92.95
60852;BME280;48553;50.766;2.900;2022-11-30T12:31:53;101770.63;;;7.03;92.85
60852;BME280;48553;50.766;2.900;2022-11-30T12:45:34;101799.50;;;7.09;93.07
60852;BME280;48553;50.766;2.900;2022-11-30T12:49:03;101806.03;;;7.08;93.09
60852;BME280;48553;50.766;2.900;2022-11-30T13:05:55;101800.81;;;7.12;93.10
60852;BME280;48553;50.766;2.900;2022-11-30T13:09:08;101800.81;;;7.12;93.30
60852;BME280;48553;50.766;2.900;2022-11-30T13:12:14;101807.38;;;7.11;92.96
60852;BME280;48553;50.766;2.900;2022-11-30T13:15:22;101800.03;;;7.11;93.08
60852;BME280;48553;50.766;2.900;2022-11-30T13:18:24;101814.19;;;7.14;93.21
60852;BME280;48553;50.766;2.900;2022-11-30T13:21:54;101810.66;;;7.13;93.07
60852;BME280;48553;50.766;2.900;2022-11-30T13:25:02;101824.28;;;7.13;93.34
60852;BME280;48553;50.766;2.900;2022-11-30T13:34:51;101818.00;;;7.13;93.40
60852;BME280;48553;50.766;2.900;2022-11-30T13:38:12;101817.72;;;7.14;93.08
60852;BME280;48553;50.766;2.900;2022-11-30T13:41:19;101825.09;;;7.14;93.32
60852;BME280;48553;50.766;2.900;2022-11-30T13:47:34;101825.09;;;7.14;93.17
60852;BME280;48553;50.766;2.900;2022-11-30T13:50:38;101830.00;;;7.11;93.31
60852;BME280;48553;50.766;2.900;2022-11-30T13:53:39;101827.00;;;7.13;93.58
60852;BME280;48553;50.766;2.900;2022-11-30T13:56:40;101827.81;;;7.14;93.23
60852;BME280;48553;50.766;2.900;2022-11-30T13:59:48;101832.16;;;7.15;93.18
60852;BME280;48553;50.766;2.900;2022-11-30T14:02:51;101837.91;;;7.13;93.30
60852;BME280;48553;50.766;2.900;2022-11-30T14:05:55;101838.72;;;7.14;93.37
60852;BME280;48553;50.766;2.900;2022-11-30T14:08:55;101832.44;;;7.13;93.54
60852;BME280;48553;50.766;2.900;2022-11-30T14:11:56;101832.44;;;7.13;93.27
60852;BME280;48553;50.766;2.900;2022-11-30T14:14:57;101841.72;;;7.12;93.68
60852;BME280;48553;50.766;2.900;2022-11-30T14:18:02;101829.19;;;7.11;93.75
60852;BME280;48553;50.766;2.900;2022-11-30T14:21:14;101822.63;;;7.12;93.80
60852;BME280;48553;50.766;2.900;2022-11-30T14:24:19;101831.63;;;7.13;93.49
60852;BME280;48553;50.766;2.900;2022-11-30T14:27:26;101830.00;;;7.11;93.47
60852;BME280;48553;50.766;2.900;2022-11-30T14:30:30;101833.53;;;7.12;93.87
60852;BME280;48553;50.766;2.900;2022-11-30T14:33:48;101843.34;;;7.13;93.58
60852;BME280;48553;50.766;2.900;2022-11-30T14:36:59;101845.56;;;7.11;93.98
60852;BME280;48553;50.766;2.900;2022-11-30T14:40:02;101853.44;;;7.13;93.73
60852;BME280;48553;50.766;2.900;2022-11-30T14:43:03;101844.72;;;7.10;93.77
60852;BME280;48553;50.766;2.900;2022-11-30T14:46:04;101854.00;;;7.09;93.76
60852;BME280;48553;50.766;2.900;2022-11-30T14:49:13;101853.19;;;7.09;94.11
60852;BME280;48553;50.766;2.900;2022-11-30T14:52:26;101853.72;;;7.11;93.72
60852;BME280;48553;50.766;2.900;2022-11-30T14:55:43;101849.88;;;7.12;93.82
60852;BME280;48553;50.766;2.900;2022-11-30T14:58:54;101847.44;;;7.10;94.02
60852;BME280;48553;50.766;2.900;2022-11-30T15:01:59;101835.72;;;7.10;94.13
60852;BME280;48553;50.766;2.900;2022-11-30T15:05:00;101842.00;;;7.10;93.76
60852;BME280;48553;50.766;2.900;2022-11-30T15:08:01;101838.44;;;7.10;93.94
60852;BME280;48553;50.766;2.900;2022-11-30T15:11:04;101840.38;;;7.09;93.91
60852;BME280;48553;50.766;2.900;2022-11-30T15:14:09;101845.03;;;7.09;94.03
60852;BME280;48553;50.766;2.900;2022-11-30T15:17:12;101833.28;;;7.08;94.00
60852;BME280;48553;50.766;2.900;2022-11-30T15:20:59;101833.59;;;7.07;93.99
60852;BME280;48553;50.766;2.900;2022-11-30T15:23:39;101818.31;;;7.06;94.16
60852;BME280;48553;50.766;2.900;2022-11-30T15:26:51;101822.69;;;7.07;93.96
60852;BME280;48553;50.766;2.900;2022-11-30T15:29:57;101837.69;;;7.04;94.11
60852;BME280;48553;50.766;2.900;2022-11-30T15:32:59;101833.34;;;7.03;94.25
60852;BME280;48553;50.766;2.900;2022-11-30T15:36:01;101840.69;;;7.03;94.25
60852;BME280;48553;50.766;2.900;2022-11-30T15:39:04;101834.97;;;7.04;94.19
60852;BME280;48553;50.766;2.900;2022-11-30T15:42:06;101849.41;;;7.05;94.20
60852;BME280;48553;50.766;2.900;2022-11-30T15:45:14;101859.78;;;7.03;93.88
60852;BME280;48553;50.766;2.900;2022-11-30T15:48:30;101850.78;;;7.02;93.79
60852;BME280;48553;50.766;2.900;2022-11-30T15:51:40;101860.59;;;7.03;93.88
60852;BME280;48553;50.766;2.900;2022-11-30T15:57:59;101865.22;;;7.03;93.78
60852;BME280;48553;50.766;2.900;2022-11-30T16:04:08;101866.63;;;7.00;93.85
60852;BME280;48553;50.766;2.900;2022-11-30T16:07:15;101872.34;;;6.99;93.84
60852;BME280;48553;50.766;2.900;2022-11-30T16:10:35;101867.69;;;6.99;93.78
60852;BME280;48553;50.766;2.900;2022-11-30T16:13:35;101864.16;;;6.99;93.87
60852;BME280;48553;50.766;2.900;2022-11-30T16:16:36;101860.63;;;6.98;93.78
60852;BME280;48553;50.766;2.900;2022-11-30T16:19:36;101869.91;;;6.97;93.91
60852;BME280;48553;50.766;2.900;2022-11-30T16:22:37;101879.97;;;6.97;93.84
60852;BME280;48553;50.766;2.900;2022-11-30T16:25:40;101876.19;;;6.98;93.80
60852;BME280;48553;50.766;2.900;2022-11-30T16:28:41;101867.47;;;6.96;93.87
60852;BME280;48553;50.766;2.900;2022-11-30T16:31:42;101860.38;;;6.95;93.64
60852;BME280;48553;50.766;2.900;2022-11-30T16:34:42;101871.81;;;6.97;93.75
60852;BME280;48553;50.766;2.900;2022-11-30T16:37:43;101874.84;;;6.95;93.56
60852;BME280;48553;50.766;2.900;2022-11-30T16:40:43;101888.47;;;6.95;93.76
60852;BME280;48553;50.766;2.900;2022-11-30T16:43:45;101882.47;;;6.93;93.85
60852;BME280;48553;50.766;2.900;2022-11-30T16:46:46;101890.66;;;6.93;93.68
60852;BME280;48553;50.766;2.900;2022-11-30T16:49:46;101893.06;;;6.95;93.58
60852;BME280;48553;50.766;2.900;2022-11-30T16:52:46;101885.47;;;6.92;93.51
60852;BME280;48553;50.766;2.900;2022-11-30T16:55:47;101880.03;;;6.92;93.86
60852;BME280;48553;50.766;2.900;2022-11-30T16:58:47;101881.63;;;6.93;93.40
60852;BME280;48553;50.766;2.900;2022-11-30T17:01:48;101871.03;;;6.91;93.50
60852;BME280;48553;50.766;2.900;2022-11-30T17:04:52;101864.78;;;6.90;93.33
60852;BME280;48553;50.766;2.900;2022-11-30T17:07:53;101871.03;;;6.91;93.47
60852;BME280;48553;50.766;2.900;2022-11-30T17:10:53;101867.50;;;6.90;93.53
60852;BME280;48553;50.766;2.900;2022-11-30T17:13:54;101875.97;;;6.89;93.22
60852;BME280;48553;50.766;2.900;2022-11-30T17:16:55;101880.59;;;6.88;93.15
60852;BME280;48553;50.766;2.900;2022-11-30T17:19:55;101881.69;;;6.87;93.12
60852;BME280;48553;50.766;2.900;2022-11-30T17:22:56;101896.13;;;6.88;93.33
60852;BME280;48553;50.766;2.900;2022-11-30T17:25:56;101903.47;;;6.87;93.52
60852;BME280;48553;50.766;2.900;2022-11-30T17:28:57;101904.59;;;6.86;93.54
60852;BME280;48553;50.766;2.900;2022-11-30T17:31:57;101899.41;;;6.85;93.47
60852;BME280;48553;50.766;2.900;2022-11-30T17:34:57;101904.06;;;6.84;93.47
60852;BME280;48553;50.766;2.900;2022-11-30T17:37:58;101896.69;;;6.85;93.21
60852;BME280;48553;50.766;2.900;2022-11-30T17:40:58;101890.16;;;6.86;93.34